Time;durP1;ratioP1;P1;durP2;ratioP2;P2;SDS_P1;SDS_P2;PMS_P1;PMS_P2;Temp;Humidity;BMP_temperature;BMP_pressure;BME280_temperature;BME280_humidity;BME280_pressure;Samples;Min_cycle;Max_cycle;Signal;HPM_P1;HPM_P2
2023/04/22 00:02:07;;;;;;;11.18;5.35;;;;;;;;;;5155814;27;20026;-69
2023/04/22 00:04:33;;;;;;;14.65;5.72;;;;;;;;;;5155571;27;20110;-71
2023/04/22 00:06:58;;;;;;;11.85;5.75;;;;;;;;;;5155782;27;20078;-74
2023/04/22 00:09:24;;;;;;;11.05;6.20;;;;;;;;;;5155476;27;20536;-74
2023/04/22 00:11:50;;;;;;;10.40;5.35;;;;;;;;;;5155560;27;20106;-71
2023/04/22 00:14:16;;;;;;;9.63;5.20;;;;;;;;;;5155387;27;20380;-75
2023/04/22 00:16:41;;;;;;;9.07;5.65;;;;;;;;;;5155518;27;20019;-75
2023/04/22 00:19:06;;;;;;;11.60;5.32;;;;;;;;;;5155432;27;20010;-74
2023/04/22 00:21:32;;;;;;;13.98;6.57;;;;;;;;;;5153919;27;20018;-73
2023/04/22 00:23:57;;;;;;;9.30;5.30;;;;;;;;;;5155222;27;20050;-78
2023/04/22 00:26:23;;;;;;;13.95;5.65;;;;;;;;;;5155028;27;20026;-70
2023/04/22 00:28:49;;;;;;;11.45;5.82;;;;;;;;;;5155061;27;20023;-74
2023/04/22 00:31:14;;;;;;;10.63;5.72;;;;;;;;;;5154236;27;20025;-76
2023/04/22 00:34:33;;;;;;;10.77;5.68;;;;;;;;;;5132913;27;20034;-64
2023/04/22 00:36:58;;;;;;;16.70;6.30;;;;;;;;;;5133881;27;20524;-68
2023/04/22 00:39:24;;;;;;;13.10;6.38;;;;;;;;;;5134059;27;20054;-64
2023/04/22 00:41:50;;;;;;;10.77;6.35;;;;;;;;;;5134295;27;20023;-64
2023/04/22 00:44:17;;;;;;;10.32;5.38;;;;;;;;;;5134135;27;20023;-73
2023/04/22 00:46:42;;;;;;;10.55;5.05;;;;;;;;;;5134118;27;20060;-67
2023/04/22 00:49:08;;;;;;;9.07;5.15;;;;;;;;;;5133965;27;20055;-64
2023/04/22 00:51:34;;;;;;;10.18;5.18;;;;;;;;;;5134079;27;20109;-66
2023/04/22 00:54:03;;;;;;;10.10;5.10;;;;;;;;;;5134027;27;20065;-71
2023/04/22 00:56:30;;;;;;;8.43;5.32;;;;;;;;;;5133979;27;20106;-68
2023/04/22 00:58:56;;;;;;;8.75;4.65;;;;;;;;;;5144269;27;20050;-67
2023/04/22 01:01:22;;;;;;;9.60;5.22;;;;;;;;;;5154696;27;20496;-72
2023/04/22 01:03:49;;;;;;;9.40;5.20;;;;;;;;;;5154832;27;20034;-69
2023/04/22 01:06:17;;;;;;;8.52;5.30;;;;;;;;;;5154535;27;20423;-65
2023/04/22 01:08:43;;;;;;;9.43;4.80;;;;;;;;;;5154601;27;20095;-72
2023/04/22 01:11:08;;;;;;;8.50;5.15;;;;;;;;;;5154331;27;20014;-77
2023/04/22 01:13:36;;;;;;;9.20;5.28;;;;;;;;;;5154184;27;20080;-76
2023/04/22 01:16:04;;;;;;;9.20;4.63;;;;;;;;;;5154554;27;20027;-67
2023/04/22 01:18:31;;;;;;;9.63;4.80;;;;;;;;;;5154394;27;20038;-64
2023/04/22 01:20:56;;;;;;;7.35;4.80;;;;;;;;;;5154475;27;20026;-74
2023/04/22 01:23:22;;;;;;;7.22;4.72;;;;;;;;;;5154287;27;20388;-68
2023/04/22 01:25:48;;;;;;;10.00;4.82;;;;;;;;;;5154141;27;20087;-65
2023/04/22 01:28:15;;;;;;;10.85;5.05;;;;;;;;;;5154300;27;20101;-68
2023/04/22 01:30:41;;;;;;;8.65;5.07;;;;;;;;;;5154254;27;20023;-67
2023/04/22 01:33:08;;;;;;;8.40;4.53;;;;;;;;;;5137170;27;20050;-76
2023/04/22 01:35:38;;;;;;;12.52;5.57;;;;;;;;;;5133567;27;20031;-68
2023/04/22 01:38:04;;;;;;;8.35;4.57;;;;;;;;;;5133426;27;20102;-67
2023/04/22 01:40:33;;;;;;;9.25;4.95;;;;;;;;;;5133094;27;20587;-69
2023/04/22 01:42:59;;;;;;;7.40;4.68;;;;;;;;;;5133239;27;20490;-64
2023/04/22 01:45:25;;;;;;;13.32;7.97;;;;;;;;;;5133390;27;20078;-64
2023/04/22 01:47:51;;;;;;;23.35;14.43;;;;;;;;;;5133315;27;20023;-67
2023/04/22 01:50:16;;;;;;;15.88;7.57;;;;;;;;;;5133259;28;20030;-69
2023/04/22 01:52:42;;;;;;;11.75;5.00;;;;;;;;;;5136250;27;20092;-65
2023/04/22 01:55:08;;;;;;;12.48;5.10;;;;;;;;;;5137246;27;20027;-64
2023/04/22 01:57:33;;;;;;;7.93;5.15;;;;;;;;;;5137403;27;20556;-64
2023/04/22 01:59:59;;;;;;;7.93;4.43;;;;;;;;;;5157117;27;20042;-64
2023/04/22 02:02:25;;;;;;;13.27;5.10;;;;;;;;;;5157978;27;20030;-66
2023/04/22 02:04:50;;;;;;;12.60;4.78;;;;;;;;;;5158199;27;20079;-67
2023/04/22 02:07:16;;;;;;;8.10;4.63;;;;;;;;;;5157961;27;20110;-64
2023/04/22 02:09:41;;;;;;;9.43;4.65;;;;;;;;;;5157847;27;20023;-64
2023/04/22 02:12:07;;;;;;;8.82;5.20;;;;;;;;;;5158075;27;20026;-65
2023/04/22 02:14:32;;;;;;;11.35;4.55;;;;;;;;;;5157720;27;20033;-65
2023/04/22 02:16:58;;;;;;;9.63;5.13;;;;;;;;;;5157765;27;20083;-65
2023/04/22 02:19:23;;;;;;;7.32;4.50;;;;;;;;;;5157618;27;20019;-65
2023/04/22 02:21:48;;;;;;;8.55;5.13;;;;;;;;;;5157702;27;20070;-64
2023/04/22 02:24:14;;;;;;;9.05;4.25;;;;;;;;;;5156246;27;20023;-70
2023/04/22 02:26:40;;;;;;;9.15;4.70;;;;;;;;;;5157603;27;20034;-64
2023/04/22 02:29:06;;;;;;;10.05;4.60;;;;;;;;;;5157464;27;20073;-64
2023/04/22 02:31:31;;;;;;;9.75;4.53;;;;;;;;;;5154402;27;20425;-64
2023/04/22 02:33:56;;;;;;;10.48;4.60;;;;;;;;;;5136698;27;20023;-64
2023/04/22 02:36:22;;;;;;;7.95;4.15;;;;;;;;;;5136648;27;20019;-67
2023/04/22 02:38:48;;;;;;;7.60;4.30;;;;;;;;;;5136377;27;20072;-64
2023/04/22 02:41:13;;;;;;;8.57;4.38;;;;;;;;;;5136533;27;20084;-63
2023/04/22 02:43:41;;;;;;;9.85;4.63;;;;;;;;;;5135125;27;20031;-74
2023/04/22 02:46:06;;;;;;;8.32;4.20;;;;;;;;;;5136477;27;20095;-63
2023/04/22 02:48:32;;;;;;;5.97;3.95;;;;;;;;;;5136391;27;20066;-65
2023/04/22 02:50:57;;;;;;;7.85;4.40;;;;;;;;;;5136592;27;20019;-63
2023/04/22 02:53:22;;;;;;;6.75;4.32;;;;;;;;;;5135911;27;20035;-65
2023/04/22 02:55:48;;;;;;;7.97;4.38;;;;;;;;;;5136323;27;20027;-65
2023/04/22 02:58:13;;;;;;;9.07;4.32;;;;;;;;;;5140589;27;20018;-64
2023/04/22 03:00:39;;;;;;;8.52;4.15;;;;;;;;;;5156951;27;20464;-70
2023/04/22 03:03:04;;;;;;;8.82;4.45;;;;;;;;;;5156924;27;20037;-63
2023/04/22 03:05:29;;;;;;;6.78;4.10;;;;;;;;;;5157057;27;20022;-65
2023/04/22 03:07:55;;;;;;;9.15;4.25;;;;;;;;;;5156744;27;20030;-64
2023/04/22 03:10:20;;;;;;;10.07;4.45;;;;;;;;;;5156983;27;20448;-65
2023/04/22 03:12:45;;;;;;;9.95;4.13;;;;;;;;;;5156926;27;20056;-63
2023/04/22 03:15:11;;;;;;;7.80;4.30;;;;;;;;;;5155312;27;20087;-63
2023/04/22 03:17:36;;;;;;;6.57;4.50;;;;;;;;;;5156396;27;20033;-64
2023/04/22 03:20:02;;;;;;;7.93;4.22;;;;;;;;;;5156951;27;20425;-64
2023/04/22 03:22:28;;;;;;;9.38;4.80;;;;;;;;;;5156558;27;20032;-64
2023/04/22 03:24:53;;;;;;;10.18;4.22;;;;;;;;;;5156824;27;20026;-65
2023/04/22 03:27:18;;;;;;;10.07;4.30;;;;;;;;;;5156387;27;20069;-65
2023/04/22 03:29:44;;;;;;;9.48;4.10;;;;;;;;;;5156620;27;20061;-65
2023/04/22 03:32:10;;;;;;;6.65;4.22;;;;;;;;;;5147798;27;20159;-68
2023/04/22 03:34:35;;;;;;;7.43;4.40;;;;;;;;;;5135607;27;20473;-68
2023/04/22 03:37:00;;;;;;;8.80;5.15;;;;;;;;;;5135357;27;20472;-65
2023/04/22 03:39:26;;;;;;;9.05;5.40;;;;;;;;;;5135606;27;20023;-68
2023/04/22 03:41:51;;;;;;;10.57;5.95;;;;;;;;;;5135696;27;20128;-72
2023/04/22 03:44:17;;;;;;;9.10;5.75;;;;;;;;;;5135424;27;20011;-65
2023/04/22 03:46:42;;;;;;;9.32;5.65;;;;;;;;;;5135712;27;20358;-68
2023/04/22 03:49:08;;;;;;;9.07;4.85;;;;;;;;;;5135315;27;20465;-67
2023/04/22 03:51:33;;;;;;;8.25;4.97;;;;;;;;;;5135300;27;20015;-63
2023/04/22 03:53:58;;;;;;;9.73;5.13;;;;;;;;;;5135378;27;20031;-66
2023/04/22 03:56:24;;;;;;;8.57;4.50;;;;;;;;;;5135300;27;20118;-65
2023/04/22 03:58:50;;;;;;;11.77;4.85;;;;;;;;;;5145086;27;20062;-67
2023/04/22 04:01:15;;;;;;;9.05;4.82;;;;;;;;;;5155934;27;20388;-64
2023/04/22 04:03:41;;;;;;;8.48;4.75;;;;;;;;;;5155896;27;20502;-66
2023/04/22 04:06:06;;;;;;;7.40;4.60;;;;;;;;;;5155624;27;20376;-64
2023/04/22 04:08:32;;;;;;;11.50;4.82;;;;;;;;;;5154560;27;20077;-65
2023/04/22 04:10:57;;;;;;;8.25;4.32;;;;;;;;;;5155806;27;20022;-74
2023/04/22 04:13:22;;;;;;;11.15;4.15;;;;;;;;;;5155717;27;20378;-74
2023/04/22 04:15:48;;;;;;;8.85;4.40;;;;;;;;;;5155127;27;20081;-75
2023/04/22 04:18:14;;;;;;;7.03;4.57;;;;;;;;;;5155624;27;20079;-76
2023/04/22 04:20:39;;;;;;;6.85;4.28;;;;;;;;;;5155371;27;20053;-76
2023/04/22 04:23:05;;;;;;;10.05;4.03;;;;;;;;;;5155404;27;20046;-70
2023/04/22 04:25:36;;;;;;;7.68;4.20;;;;;;;;;;5155488;27;20022;-76
2023/04/22 04:28:04;;;;;;;10.18;4.82;;;;;;;;;;5155277;27;20034;-74
2023/04/22 04:30:29;;;;;;;8.10;4.28;;;;;;;;;;5155326;27;20022;-76
2023/04/22 04:32:56;;;;;;;8.38;4.57;;;;;;;;;;5140121;27;20099;-73
2023/04/22 04:35:22;;;;;;;7.43;4.57;;;;;;;;;;5134211;27;20023;-76
2023/04/22 04:37:49;;;;;;;12.20;4.78;;;;;;;;;;5134530;27;20031;-72
2023/04/22 04:40:15;;;;;;;6.93;4.45;;;;;;;;;;5133280;27;20019;-70
2023/04/22 04:42:41;;;;;;;8.27;4.75;;;;;;;;;;5134393;27;20098;-77
2023/04/22 04:45:08;;;;;;;9.00;4.68;;;;;;;;;;5134156;27;20019;-76
2023/04/22 04:47:34;;;;;;;9.07;4.78;;;;;;;;;;5134372;27;20334;-69
2023/04/22 04:50:03;;;;;;;9.65;4.65;;;;;;;;;;5134229;27;20019;-69
2023/04/22 04:52:28;;;;;;;10.02;4.32;;;;;;;;;;5134330;27;20087;-69
2023/04/22 04:54:54;;;;;;;7.78;4.68;;;;;;;;;;5134029;27;20418;-72
2023/04/22 04:57:19;;;;;;;11.13;4.90;;;;;;;;;;5134106;27;20027;-68
2023/04/22 04:59:45;;;;;;;8.65;5.22;;;;;;;;;;5151775;27;20033;-65
2023/04/22 05:02:10;;;;;;;9.35;4.90;;;;;;;;;;5155031;27;20384;-67
2023/04/22 05:04:35;;;;;;;10.73;4.93;;;;;;;;;;5154473;27;20048;-71
2023/04/22 05:07:01;;;;;;;6.93;4.57;;;;;;;;;;5154702;27;20022;-72
2023/04/22 05:09:26;;;;;;;8.68;4.80;;;;;;;;;;5154842;27;20119;-68
2023/04/22 05:11:52;;;;;;;7.68;4.47;;;;;;;;;;5154497;27;20027;-66
2023/04/22 05:14:17;;;;;;;8.43;4.47;;;;;;;;;;5154597;27;20034;-67
2023/04/22 05:16:43;;;;;;;7.70;4.43;;;;;;;;;;5154554;27;20353;-65
2023/04/22 05:19:08;;;;;;;9.93;4.72;;;;;;;;;;5154238;27;20034;-67
2023/04/22 05:21:33;;;;;;;6.70;4.80;;;;;;;;;;5153302;27;20023;-66
2023/04/22 05:24:00;;;;;;;8.65;5.07;;;;;;;;;;5154533;27;20026;-66
2023/04/22 05:26:25;;;;;;;6.85;4.25;;;;;;;;;;5153543;27;20034;-64
2023/04/22 05:28:51;;;;;;;8.68;4.53;;;;;;;;;;5154433;27;20025;-63
2023/04/22 05:31:16;;;;;;;10.75;4.65;;;;;;;;;;5153142;27;20422;-66
2023/04/22 05:33:42;;;;;;;11.57;5.75;;;;;;;;;;5133182;27;20047;-65
2023/04/22 05:36:07;;;;;;;11.88;5.65;;;;;;;;;;5133485;27;20023;-65
2023/04/22 05:38:33;;;;;;;9.20;5.00;;;;;;;;;;5133480;27;20051;-63
2023/04/22 05:40:58;;;;;;;11.70;4.70;;;;;;;;;;5133591;27;20023;-64
2023/04/22 05:43:23;;;;;;;9.55;4.78;;;;;;;;;;5133483;27;20529;-63
2023/04/22 05:45:49;;;;;;;7.53;4.75;;;;;;;;;;5133438;27;20377;-72
2023/04/22 05:48:14;;;;;;;11.00;5.30;;;;;;;;;;5133103;27;20363;-68
2023/04/22 05:50:40;;;;;;;9.73;4.97;;;;;;;;;;5133526;27;20110;-70
2023/04/22 05:53:05;;;;;;;11.30;4.95;;;;;;;;;;5133255;28;20023;-66
2023/04/22 05:55:31;;;;;;;11.77;4.65;;;;;;;;;;5133432;28;20019;-65
2023/04/22 05:57:56;;;;;;;16.45;5.13;;;;;;;;;;5135483;27;20019;-74
2023/04/22 06:00:21;;;;;;;11.75;4.72;;;;;;;;;;5154264;27;20046;-64
2023/04/22 06:02:47;;;;;;;8.40;5.20;;;;;;;;;;5153940;27;20018;-68
2023/04/22 06:05:12;;;;;;;10.27;4.80;;;;;;;;;;5153600;27;20030;-63
2023/04/22 06:07:39;;;;;;;8.88;5.47;;;;;;;;;;5154028;27;20033;-63
2023/04/22 06:10:05;;;;;;;10.77;4.93;;;;;;;;;;5154124;27;20050;-73
2023/04/22 06:12:32;;;;;;;13.52;5.28;;;;;;;;;;5154016;27;20031;-64
2023/04/22 06:14:57;;;;;;;8.15;4.80;;;;;;;;;;5153829;27;20031;-65
2023/04/22 06:17:23;;;;;;;8.95;4.68;;;;;;;;;;5153559;27;20082;-63
2023/04/22 06:19:48;;;;;;;11.38;5.88;;;;;;;;;;5153834;27;20022;-67
2023/04/22 06:22:14;;;;;;;13.40;5.10;;;;;;;;;;5153911;27;20430;-67
2023/04/22 06:24:39;;;;;;;11.82;4.90;;;;;;;;;;5153740;27;20106;-68
2023/04/22 06:27:04;;;;;;;16.15;5.28;;;;;;;;;;5152510;27;20033;-68
2023/04/22 06:29:30;;;;;;;8.10;4.90;;;;;;;;;;5153882;27;20106;-67
2023/04/22 06:31:55;;;;;;;8.57;4.50;;;;;;;;;;5146933;27;20103;-69
2023/04/22 06:34:21;;;;;;;11.90;4.93;;;;;;;;;;5133077;27;20469;-72
2023/04/22 06:36:46;;;;;;;11.98;4.65;;;;;;;;;;5133033;27;20072;-64
2023/04/22 06:39:12;;;;;;;10.57;4.80;;;;;;;;;;5136500;27;20019;-64
2023/04/22 06:41:37;;;;;;;12.98;5.85;;;;;;;;;;5136872;27;20031;-63
2023/04/22 06:44:03;;;;;;;18.30;6.20;;;;;;;;;;5136777;27;20015;-63
2023/04/22 06:46:28;;;;;;;8.30;5.38;;;;;;;;;;5136372;27;20470;-63
2023/04/22 06:48:54;;;;;;;8.57;4.72;;;;;;;;;;5136643;27;20019;-64
2023/04/22 06:51:19;;;;;;;10.25;4.47;;;;;;;;;;5136551;27;20034;-64
2023/04/22 06:53:45;;;;;;;8.27;4.18;;;;;;;;;;5136164;27;20049;-65
2023/04/22 06:56:10;;;;;;;13.60;5.05;;;;;;;;;;5136514;27;20076;-70
2023/04/22 06:58:36;;;;;;;9.60;5.32;;;;;;;;;;5144067;27;20034;-64
2023/04/22 07:01:01;;;;;;;10.45;4.55;;;;;;;;;;5156751;27;20031;-64
2023/04/22 07:03:27;;;;;;;12.63;5.10;;;;;;;;;;5151596;27;20030;-65
2023/04/22 07:05:52;;;;;;;14.07;5.72;;;;;;;;;;5136351;27;20396;-69
2023/04/22 07:08:18;;;;;;;12.07;6.43;;;;;;;;;;5136151;27;20027;-63
2023/04/22 07:10:44;;;;;;;11.57;5.68;;;;;;;;;;5136085;27;20015;-68
2023/04/22 07:13:09;;;;;;;10.77;5.90;;;;;;;;;;5135928;27;20020;-69
2023/04/22 07:15:35;;;;;;;12.20;5.90;;;;;;;;;;5130405;27;20103;-68
2023/04/22 07:18:00;;;;;;;11.07;5.88;;;;;;;;;;5133867;27;20461;-74
2023/04/22 07:20:25;;;;;;;11.95;5.47;;;;;;;;;;5135543;27;20143;-75
2023/04/22 07:22:51;;;;;;;11.32;5.68;;;;;;;;;;5135381;27;20346;-74
2023/04/22 07:25:17;;;;;;;10.10;5.25;;;;;;;;;;5134425;27;20015;-74
2023/04/22 07:27:42;;;;;;;10.73;5.57;;;;;;;;;;5134343;27;20106;-64
2023/04/22 07:30:10;;;;;;;10.10;4.97;;;;;;;;;;5134133;27;20022;-63
2023/04/22 07:32:35;;;;;;;9.85;4.88;;;;;;;;;;5133907;27;20035;-64
2023/04/22 07:35:01;;;;;;;7.68;4.85;;;;;;;;;;5134164;27;20034;-69
2023/04/22 07:37:26;;;;;;;7.50;4.78;;;;;;;;;;5133953;27;20019;-66
2023/04/22 07:39:52;;;;;;;7.95;4.85;;;;;;;;;;5134211;27;20019;-63
2023/04/22 07:42:17;;;;;;;8.45;4.68;;;;;;;;;;5134085;27;20019;-74
2023/04/22 07:44:42;;;;;;;8.00;5.00;;;;;;;;;;5133876;27;20223;-63
2023/04/22 07:47:08;;;;;;;10.55;5.10;;;;;;;;;;5133859;27;20079;-77
2023/04/22 07:49:33;;;;;;;11.23;5.03;;;;;;;;;;5133047;27;20023;-76
2023/04/22 07:51:59;;;;;;;10.32;4.45;;;;;;;;;;5133908;27;20035;-71
2023/04/22 07:54:24;;;;;;;12.70;5.40;;;;;;;;;;5133740;27;20027;-64
2023/04/22 07:56:50;;;;;;;8.02;4.80;;;;;;;;;;5133877;27;20075;-66
2023/04/22 07:59:15;;;;;;;8.18;4.57;;;;;;;;;;5133601;27;20019;-67
2023/04/22 08:01:42;;;;;;;6.68;4.40;;;;;;;;;;5133291;27;20043;-75
2023/04/22 08:04:07;;;;;;;9.38;5.07;;;;;;;;;;5133170;27;20497;-64
2023/04/22 08:06:33;;;;;;;11.75;5.30;;;;;;;;;;5133275;27;20015;-62
2023/04/22 08:08:58;;;;;;;14.75;4.53;;;;;;;;;;5134381;27;20027;-74
2023/04/22 08:11:24;;;;;;;10.20;4.65;;;;;;;;;;5134963;27;20037;-64
2023/04/22 08:13:49;;;;;;;6.55;3.95;;;;;;;;;;5134486;27;20042;-69
2023/04/22 08:16:15;;;;;;;11.18;4.95;;;;;;;;;;5134783;27;20035;-67
2023/04/22 08:18:40;;;;;;;10.25;5.10;;;;;;;;;;5134709;27;20031;-76
2023/04/22 08:21:06;;;;;;;9.30;3.92;;;;;;;;;;5134579;27;20020;-73
2023/04/22 08:23:31;;;;;;;7.93;4.68;;;;;;;;;;5134706;27;20023;-74
2023/04/22 08:25:57;;;;;;;10.32;4.43;;;;;;;;;;5134488;27;20020;-69
2023/04/22 08:28:23;;;;;;;7.65;4.03;;;;;;;;;;5134291;27;20106;-74
2023/04/22 08:30:48;;;;;;;7.00;4.20;;;;;;;;;;5134656;27;20160;-63
2023/04/22 08:33:15;;;;;;;8.45;3.85;;;;;;;;;;5133887;27;20039;-63
2023/04/22 08:35:40;;;;;;;10.20;4.10;;;;;;;;;;5134378;27;20422;-74
2023/04/22 08:38:06;;;;;;;7.05;4.22;;;;;;;;;;5134323;27;20187;-63
2023/04/22 08:40:33;;;;;;;6.82;4.28;;;;;;;;;;5130393;27;20019;-62
2023/04/22 08:42:58;;;;;;;10.63;4.35;;;;;;;;;;5117768;27;20482;-73
2023/04/22 08:45:24;;;;;;;6.97;3.83;;;;;;;;;;5120809;27;20023;-74
2023/04/22 08:47:51;;;;;;;8.05;3.55;;;;;;;;;;5148819;27;20103;-67
2023/04/22 08:50:19;;;;;;;8.48;3.70;;;;;;;;;;5154268;27;20101;-65
2023/04/22 08:52:45;;;;;;;8.25;3.53;;;;;;;;;;5154413;27;20050;-71
2023/04/22 08:55:10;;;;;;;5.88;3.13;;;;;;;;;;5154480;27;20058;-74
2023/04/22 08:57:37;;;;;;;7.93;4.22;;;;;;;;;;5154321;27;20038;-63
2023/04/22 09:00:04;;;;;;;6.25;3.97;;;;;;;;;;5134212;27;20099;-69
2023/04/22 09:02:31;;;;;;;11.20;3.60;;;;;;;;;;5133700;27;20049;-65
2023/04/22 09:04:57;;;;;;;8.43;4.75;;;;;;;;;;5133640;27;20027;-68
2023/04/22 09:07:26;;;;;;;7.00;4.47;;;;;;;;;;5133962;27;20099;-72
2023/04/22 09:09:54;;;;;;;6.43;3.53;;;;;;;;;;5133230;27;20038;-71
2023/04/22 09:12:19;;;;;;;5.60;3.40;;;;;;;;;;5133854;27;20118;-63
2023/04/22 09:14:45;;;;;;;5.82;2.83;;;;;;;;;;5133868;27;20109;-63
2023/04/22 09:17:14;;;;;;;6.30;3.55;;;;;;;;;;5133478;27;20034;-63
2023/04/22 09:19:40;;;;;;;5.65;3.30;;;;;;;;;;5133781;27;20019;-70
2023/04/22 09:22:09;;;;;;;7.38;4.22;;;;;;;;;;5133585;27;20039;-62
2023/04/22 09:24:35;;;;;;;7.95;4.00;;;;;;;;;;5133597;27;20438;-72
2023/04/22 09:27:04;;;;;;;7.00;3.58;;;;;;;;;;5133600;27;20103;-73
2023/04/22 09:29:30;;;;;;;4.28;2.92;;;;;;;;;;5133582;27;20023;-63
2023/04/22 09:31:56;;;;;;;5.78;3.60;;;;;;;;;;5126934;27;20118;-63
2023/04/22 09:34:21;;;;;;;6.65;3.03;;;;;;;;;;5112974;28;20031;-63
2023/04/22 09:36:50;;;;;;;6.03;3.47;;;;;;;;;;5128248;27;20023;-62
2023/04/22 09:39:15;;;;;;;7.97;3.47;;;;;;;;;;5133142;27;20171;-63
2023/04/22 09:41:41;;;;;;;4.90;3.80;;;;;;;;;;5133598;27;20055;-63
2023/04/22 09:44:14;;;;;;;6.65;3.80;;;;;;;;;;5133416;27;20517;-69
2023/04/22 09:46:42;;;;;;;7.53;3.35;;;;;;;;;;5133228;27;20031;-67
2023/04/22 09:49:08;;;;;;;5.20;3.80;;;;;;;;;;5133434;27;20145;-64
2023/04/22 09:51:34;;;;;;;7.22;3.50;;;;;;;;;;5133444;28;20040;-64
2023/04/22 09:54:03;;;;;;;4.53;3.22;;;;;;;;;;5133288;27;20069;-65
2023/04/22 09:56:49;;;;;;;4.93;3.35;;;;;;;;;;5133272;27;20114;-72
2023/04/22 09:59:27;;;;;;;6.65;3.10;;;;;;;;;;5146655;27;20046;-67
2023/04/22 10:01:58;;;;;;;7.72;3.80;;;;;;;;;;5154094;27;20022;-68
2023/04/22 10:04:24;;;;;;;5.38;3.75;;;;;;;;;;5154069;27;20023;-65
2023/04/22 10:06:51;;;;;;;5.15;3.35;;;;;;;;;;5152544;27;20027;-64
2023/04/22 10:09:21;;;;;;;9.27;3.72;;;;;;;;;;5153695;27;20500;-67
2023/04/22 10:11:51;;;;;;;6.97;3.33;;;;;;;;;;5154165;27;20063;-66
2023/04/22 10:14:17;;;;;;;3.75;2.90;;;;;;;;;;5157883;27;20031;-65
2023/04/22 10:16:45;;;;;;;5.82;3.70;;;;;;;;;;5157972;27;20023;-72
2023/04/22 10:19:15;;;;;;;5.88;3.70;;;;;;;;;;5157822;27;20031;-62
2023/04/22 10:21:43;;;;;;;5.72;3.33;;;;;;;;;;5157837;27;20023;-63
2023/04/22 10:24:15;;;;;;;6.43;3.78;;;;;;;;;;5157653;27;20041;-67
2023/04/22 10:26:58;;;;;;;5.60;3.40;;;;;;;;;;5157528;27;20102;-73
2023/04/22 10:29:25;;;;;;;8.00;3.80;;;;;;;;;;5157642;27;20019;-73
2023/04/22 10:31:53;;;;;;;6.55;3.50;;;;;;;;;;5151809;27;20038;-73
2023/04/22 10:34:19;;;;;;;5.82;3.30;;;;;;;;;;5136836;27;20030;-73
2023/04/22 10:36:56;;;;;;;7.15;3.53;;;;;;;;;;5135291;27;20389;-74
2023/04/22 10:39:23;;;;;;;9.77;3.75;;;;;;;;;;5136822;27;20042;-72
2023/04/22 10:41:54;;;;;;;5.30;3.95;;;;;;;;;;5136824;27;20034;-73
2023/04/22 10:44:21;;;;;;;7.38;4.07;;;;;;;;;;5136785;27;20076;-71
2023/04/22 10:46:49;;;;;;;5.70;3.85;;;;;;;;;;5136762;27;20023;-73
2023/04/22 10:49:24;;;;;;;6.78;4.20;;;;;;;;;;5136459;27;20111;-64
2023/04/22 10:51:52;;;;;;;8.55;4.05;;;;;;;;;;5136189;27;20023;-66
2023/04/22 10:54:27;;;;;;;8.35;4.35;;;;;;;;;;5136479;27;20113;-67
2023/04/22 10:57:05;;;;;;;8.15;4.10;;;;;;;;;;5136540;27;20023;-73
2023/04/22 10:59:32;;;;;;;7.97;4.40;;;;;;;;;;5152065;27;20083;-64
2023/04/22 11:02:02;;;;;;;6.75;3.95;;;;;;;;;;5157099;27;20029;-65
2023/04/22 11:04:27;;;;;;;;;;;;;;;;;;5157399;27;20061;-73
2023/04/22 11:07:12;;;;;;;7.30;4.70;;;;;;;;;;5156663;27;19955;-63
2023/04/22 11:09:43;;;;;;;7.50;4.60;;;;;;;;;;5157011;27;20033;-62
2023/04/22 11:12:34;;;;;;;8.88;4.47;;;;;;;;;;5156855;27;20472;-65
2023/04/22 11:15:17;;;;;;;6.85;4.30;;;;;;;;;;5156769;27;20030;-62
2023/04/22 11:17:44;;;;;;;6.75;4.15;;;;;;;;;;5156861;27;20030;-63
2023/04/22 11:20:17;;;;;;;14.10;4.75;;;;;;;;;;5156845;27;20030;-67
2023/04/22 11:22:45;;;;;;;4.78;3.65;;;;;;;;;;5156916;27;20031;-70
2023/04/22 11:25:11;;;;;;;8.05;5.07;;;;;;;;;;5155156;27;20034;-70
2023/04/22 11:27:38;;;;;;;6.90;4.40;;;;;;;;;;5145285;27;20168;-63
2023/04/22 11:30:13;;;;;;;5.82;4.55;;;;;;;;;;5135972;27;20027;-63
2023/04/22 11:32:43;;;;;;;5.07;3.55;;;;;;;;;;5123335;27;20036;-63
2023/04/22 11:35:11;;;;;;;13.60;4.72;;;;;;;;;;5115892;27;20035;-63
2023/04/22 11:37:47;;;;;;;5.68;4.45;;;;;;;;;;5135612;27;20035;-63
2023/04/22 11:40:19;;;;;;;10.60;4.15;;;;;;;;;;5135703;27;20613;-65
2023/04/22 11:42:45;;;;;;;6.75;4.03;;;;;;;;;;5135640;27;20023;-70
2023/04/22 11:45:12;;;;;;;8.27;4.25;;;;;;;;;;5135391;27;20026;-62
2023/04/22 11:47:38;;;;;;;7.25;3.90;;;;;;;;;;5134004;27;20110;-67
2023/04/22 11:50:08;;;;;;;7.55;3.90;;;;;;;;;;5135142;27;20035;-62
2023/04/22 11:52:54;;;;;;;6.55;3.65;;;;;;;;;;5135317;27;20019;-73
2023/04/22 11:55:20;;;;;;;5.70;4.00;;;;;;;;;;5135221;27;20039;-68
2023/04/22 11:57:51;;;;;;;10.55;4.60;;;;;;;;;;5138010;27;20022;-73
2023/04/22 12:00:17;;;;;;;6.13;4.47;;;;;;;;;;5132307;27;20095;-69
2023/04/22 12:02:54;;;;;;;7.63;4.18;;;;;;;;;;5134883;27;20023;-74
2023/04/22 12:05:19;;;;;;;6.40;4.00;;;;;;;;;;5133809;27;20035;-73
2023/04/22 12:07:45;;;;;;;11.20;4.05;;;;;;;;;;5134483;27;20072;-72
2023/04/22 12:10:10;;;;;;;4.63;3.25;;;;;;;;;;5134302;27;20019;-70
2023/04/22 12:12:38;;;;;;;8.55;3.85;;;;;;;;;;5133663;27;20027;-65
2023/04/22 12:15:09;;;;;;;9.95;4.28;;;;;;;;;;5134822;27;20047;-62
2023/04/22 12:17:35;;;;;;;6.95;4.00;;;;;;;;;;5134816;27;20466;-64
2023/04/22 12:20:01;;;;;;;6.70;4.00;;;;;;;;;;5132749;27;20023;-68
2023/04/22 12:22:28;;;;;;;7.32;3.88;;;;;;;;;;5133035;27;20052;-70
2023/04/22 12:24:57;;;;;;;9.68;4.05;;;;;;;;;;5133748;27;20351;-69
2023/04/22 12:27:23;;;;;;;6.05;3.65;;;;;;;;;;5133823;27;20034;-64
2023/04/22 12:29:53;;;;;;;5.97;3.83;;;;;;;;;;5134154;27;20039;-71
2023/04/22 12:32:20;;;;;;;10.27;3.95;;;;;;;;;;5124456;27;20050;-64
2023/04/22 12:34:46;;;;;;;6.93;3.83;;;;;;;;;;5113470;28;20085;-73
2023/04/22 12:37:12;;;;;;;6.35;3.95;;;;;;;;;;5132474;27;20477;-72
2023/04/22 12:39:38;;;;;;;6.28;3.97;;;;;;;;;;5134600;27;20031;-69
2023/04/22 12:42:04;;;;;;;6.68;3.47;;;;;;;;;;5134512;27;20015;-72
2023/04/22 12:44:33;;;;;;;13.30;4.63;;;;;;;;;;5134371;27;20034;-73
2023/04/22 12:46:58;;;;;;;5.03;3.53;;;;;;;;;;5134503;27;20218;-72
2023/04/22 12:49:25;;;;;;;9.35;4.10;;;;;;;;;;5134222;27;20035;-70
2023/04/22 12:51:51;;;;;;;7.38;4.18;;;;;;;;;;5134536;27;20524;-71
2023/04/22 12:54:17;;;;;;;7.05;4.20;;;;;;;;;;5130875;27;20061;-70
2023/04/22 12:56:44;;;;;;;7.03;3.90;;;;;;;;;;5128238;27;20381;-70
2023/04/22 12:59:09;;;;;;;8.65;4.20;;;;;;;;;;5129780;27;20019;-68
2023/04/22 13:01:35;;;;;;;4.80;3.38;;;;;;;;;;5129973;27;20504;-68
2023/04/22 13:04:00;;;;;;;7.38;3.90;;;;;;;;;;5128997;27;20033;-67
2023/04/22 13:06:27;;;;;;;6.57;3.92;;;;;;;;;;5126355;27;20353;-68
2023/04/22 13:08:53;;;;;;;8.75;4.20;;;;;;;;;;5128964;27;20050;-71
2023/04/22 13:11:18;;;;;;;10.20;4.22;;;;;;;;;;5129217;27;20115;-72
2023/04/22 13:13:44;;;;;;;6.47;4.20;;;;;;;;;;5131282;27;20168;-66
2023/04/22 13:16:10;;;;;;;7.47;4.40;;;;;;;;;;5129446;27;20046;-70
2023/04/22 13:18:35;;;;;;;6.53;3.83;;;;;;;;;;5129051;27;20442;-70
2023/04/22 13:21:01;;;;;;;9.32;3.97;;;;;;;;;;5129153;27;20736;-65
2023/04/22 13:23:26;;;;;;;9.55;3.55;;;;;;;;;;5129595;27;20046;-65
2023/04/22 13:25:52;;;;;;;5.07;3.83;;;;;;;;;;5129498;27;20027;-68
2023/04/22 13:28:18;;;;;;;6.97;3.83;;;;;;;;;;5129722;27;20023;-71
2023/04/22 13:30:44;;;;;;;7.43;3.90;;;;;;;;;;5129662;27;20030;-67
2023/04/22 13:33:09;;;;;;;7.95;4.18;;;;;;;;;;5128787;27;20504;-65
2023/04/22 13:35:35;;;;;;;7.72;3.90;;;;;;;;;;5129653;27;20100;-65
2023/04/22 13:38:01;;;;;;;4.95;3.60;;;;;;;;;;5129432;27;20365;-62
2023/04/22 13:40:27;;;;;;;7.32;4.05;;;;;;;;;;5129406;27;20027;-63
2023/04/22 13:42:54;;;;;;;7.88;3.72;;;;;;;;;;5129601;27;20051;-70
2023/04/22 13:45:19;;;;;;;9.45;4.97;;;;;;;;;;5129284;27;20058;-72
2023/04/22 13:47:45;;;;;;;7.18;4.30;;;;;;;;;;5130992;27;20560;-71
2023/04/22 13:50:10;;;;;;;5.68;3.80;;;;;;;;;;5137776;27;20108;-69
2023/04/22 13:52:36;;;;;;;7.55;4.57;;;;;;;;;;5154772;27;20657;-72
2023/04/22 13:55:02;;;;;;;7.47;3.63;;;;;;;;;;5154377;27;20444;-72
2023/04/22 13:57:28;;;;;;;6.72;3.90;;;;;;;;;;5154375;27;20023;-70
2023/04/22 13:59:53;;;;;;;8.23;4.20;;;;;;;;;;5154018;27;20047;-71
2023/04/22 14:02:19;;;;;;;5.90;4.20;;;;;;;;;;5154114;27;20023;-72
2023/04/22 14:04:44;;;;;;;6.75;4.18;;;;;;;;;;5153733;27;20058;-72
2023/04/22 14:07:11;;;;;;;8.45;4.57;;;;;;;;;;5153842;27;20023;-65
2023/04/22 14:09:36;;;;;;;7.32;4.25;;;;;;;;;;5154105;27;20019;-66
2023/04/22 14:12:02;;;;;;;7.40;4.25;;;;;;;;;;5154084;27;20437;-71
2023/04/22 14:14:28;;;;;;;7.20;3.70;;;;;;;;;;5153629;27;20027;-67
2023/04/22 14:16:53;;;;;;;14.65;6.65;;;;;;;;;;5153780;27;20018;-72
2023/04/22 14:19:20;;;;;;;8.13;4.68;;;;;;;;;;5153332;27;20039;-71
2023/04/22 14:21:46;;;;;;;5.72;3.60;;;;;;;;;;5154067;27;20030;-66
2023/04/22 14:24:11;;;;;;;7.70;4.43;;;;;;;;;;5154055;27;20098;-67
2023/04/22 14:26:37;;;;;;;7.03;3.78;;;;;;;;;;5153624;27;20109;-68
2023/04/22 14:29:02;;;;;;;7.30;4.38;;;;;;;;;;5153574;27;20026;-63
2023/04/22 14:31:28;;;;;;;6.65;4.38;;;;;;;;;;5151170;27;20064;-69
2023/04/22 14:33:53;;;;;;;5.97;4.32;;;;;;;;;;5132754;27;20031;-62
2023/04/22 14:36:19;;;;;;;7.65;4.68;;;;;;;;;;5132581;27;20058;-66
2023/04/22 14:38:44;;;;;;;6.05;4.53;;;;;;;;;;5132906;27;20026;-68